Scroll down
FLIGHT INFORMATION
Saudia

SVA123

At Arrival Gate

KPAE
 KSFO
DATE: 2018-11-07
GATE:  -
GATE DEPARTURE: 21:19
TAKEOFF: 21:21
DATE: 2018-11-07
GATE:  -
LANDING: 23:16
GATE ARRIVAL: 23:19
FLIGHT DATA
Crew: 
Speed: 
950 kph
Altitude: 
41,017 ft
Stage Length: 
1,144.0 km
Block Time: 
2.2 hrs
Flight Time: 
1.9 hrs
Fuel Used: 
19,676 kg
Cleared Route: SEA LMT RBL
TRACK DATA
50,000 ft 1,000 kts
AIRCRAFT INFO AND CUMULATIVE STATS
Aircraft Type: 
B748F
Registration: 
SELCAL: 
MSN/LN: 
37562 / 1429
Operator: 
Total Flights: 
6
Total Block Time: 
36.5 hrs
Total Flight Time: 
34.1 hrs
Total Fuel Used: 
355,786 kg
DATALINK LOG | Newest first | Current as of: 2022-09-27 07:00:25
LABEL SEQUENCE CONTENT Dn/Up
QD194823:19 14.4▼ Dn
QC121423:12▼ Dn
2U2412KSFO 071556Z 00000KT 10SM FEW200 13/09 A3005 RMK AO2 SLP174 T01280089 $▲ Up
2S1407KSFO▼ Dn
GA2310ADVANCED GATE ASSIGNMENTS NOT YET AVAILABLE AT THIS AIRPORT▲ Up
GR1350KSFO▼ Dn
461253/OV RBL /TM 2212 /FL410 /TP B748 /TA -25 /WV 280/65 /RM NICE VIEW▼ Dn
2U3250KSFO 071456Z 00000KT 10SM FEW200 11/08 A3002 RMK AO2 SLP167 T01060078 53009 $▲ Up
2S2825KSFO▼ Dn
QB170621:17▼ Dn
QA155021:15 57.1▼ Dn
QA073221:07 58▼ Dn
2U5637DATA SERVICE NOT RESPONDING▲ Up
2S5352KSFO▼ Dn


AIRCRAFT HISTORY
FLIGHT DATE FLIGHT NO. ORIGIN DESTINATION CLEARED ROUTE BLOCK TIME FLIGHT TIME FUEL USED PILOT
2022-03-20SVA23OEDF EDDF OEDF DF501 METLA RAMSI ORDAN GIRSI ENASO EMORI DAVUS BOXIK RALKA TASMI GADSI KODAV RESAK SEPTU NAMDI OTALO TOMSI VUSEB ROXOP NINVA EFFEZ SRT RENGI NAREN TALIL KONUK EBEDI ODALI NELPO APVAS USANU ODPOT RUXEV EKSUK UPKAG VAXEB ESOSU TIVUG EVPUV DEVMU EVPIM BEDOP MODAU ODMAX NEGEM KOMAN DEGET BEGLA DITIS SOPGA RAPET NURGO LATBA VAGAB RUNEN GAPLA DEMAB SOLVU KERAX GED DF437 DF439 DF441 DF442 DF443 DF444 TAU RW07R6 hrs5.6 hrs137,671 lbZsolt Szivak
2022-02-12SVA955VOBL OEDF VOBL GUNIM IKATI NOBOD KAKIB OPIRA NINOB MEPAT LEGEN KATBI REXOD EMURU TULBU MEKNA KURTA SODEX ELUDA NOBTO SIGMO VUXOD UMIBU KUGTO UKILI ALNEV KAXOB UMEVU TOSNA ENANO ORSIS KAPAX EMISA PATOM DENVO TULUB BHR NARMI KFA OEDF5.1 hrs4 hrs100,785 lbZsolt Szivak
2022-01-15SVA8602VHHH VOBL VHHH PECAN ALLEY DAGBU SIKOU ISBIG SAMAS AGPOR DABUB ASSAD XONUS NIVEN DONGI VILAO ENBIL SAV RURAR ROT BODUR KRT UBLOD MALKI BKK BONVO AKATO DALER RENOX LALIT LULDA LADER PPB LEGIN DUMAR IDASO MMV XIVIL VOBL5.6 hrs5.2 hrs131,312 lbZsolt Szivak
2021-12-01SVA9800PHNL VHHH PHNL LILIA DOGIF 25N70 27E80 28E70 29E60 29E50 28E40 CANAI NIRAI MDE WHALE CORCO HALMA TOPAT BUICK NANJO ESKOB NHC KAORU BORDO KIKIT ANGUS PABSO LEKOS ROBIN APU PIDGY HLG SWORD MKG KADLO ANPOG ELATO MAGOG ENPET FISHA ABBEY VHHH12.6 hrs12.2 hrs264,087 lbZsolt Szivak
2018-12-29SVA519KSFO PHNL BASSL DERVL5.2 hrs5 hrs107,141 lbChemtrails
2018-11-07SVA123KPAE KSFO SEA LMT RBL2.2 hrs1.9 hrs43,379 lb-HIDDEN-